Time;durP1;ratioP1;P1;durP2;ratioP2;P2;SDS_P1;SDS_P2;PMS_P1;PMS_P2;Temp;Humidity;BMP_temperature;BMP_pressure;BME280_temperature;BME280_humidity;BME280_pressure;Samples;Min_cycle;Max_cycle;Signal;HPM_P1;HPM_P2
2023/05/16 00:01:47;;;;;;;;;;;15.80;99.90;;;;;;5092288;28;20044;-67
2023/05/16 00:04:14;;;;;;;;;;;15.90;99.90;;;;;;5096838;28;20036;-69
2023/05/16 00:06:40;;;;;;;;;;;16.10;99.90;;;;;;5098267;28;20038;-69
2023/05/16 00:09:07;;;;;;;;;;;16.10;99.90;;;;;;5093057;28;19915;-69
2023/05/16 00:11:34;;;;;;;;;;;16.20;99.90;;;;;;5096252;28;19918;-69
2023/05/16 00:14:01;;;;;;;;;;;16.30;99.90;;;;;;5093205;28;19937;-69
2023/05/16 00:16:28;;;;;;;;;;;16.40;99.90;;;;;;5093190;28;20336;-68
2023/05/16 00:18:56;;;;;;;;;;;16.50;99.90;;;;;;5093271;28;19914;-69
2023/05/16 00:21:23;;;;;;;;;;;16.60;99.90;;;;;;5092513;28;19908;-68
2023/05/16 00:23:51;;;;;;;;;;;16.70;99.90;;;;;;5092847;28;19924;-69
2023/05/16 00:26:18;;;;;;;;;;;16.80;99.90;;;;;;5092302;28;19908;-70
2023/05/16 00:28:45;;;;;;;;;;;16.80;99.90;;;;;;5093040;28;19908;-70
2023/05/16 00:31:11;;;;;;;;;;;16.90;99.90;;;;;;5092329;28;19914;-70
2023/05/16 00:33:38;;;;;;;;;;;17.00;99.90;;;;;;5091993;28;19919;-69
2023/05/16 00:36:05;;;;;;;;;;;17.20;99.90;;;;;;5092102;28;19912;-68
2023/05/16 00:38:31;;;;;;;;;;;17.30;99.90;;;;;;5092999;28;20357;-73
2023/05/16 00:40:58;;;;;;;;;;;17.40;99.90;;;;;;5091834;28;19908;-70
2023/05/16 00:43:24;;;;;;;;;;;17.50;99.90;;;;;;5092259;28;20010;-69
2023/05/16 00:45:51;;;;;;;;;;;17.60;99.90;;;;;;5092786;28;20365;-69
2023/05/16 00:48:18;;;;;;;;;;;17.70;99.90;;;;;;5092668;28;19995;-69
2023/05/16 00:50:45;;;;;;;;;;;17.80;99.90;;;;;;5073993;28;20342;-68
2023/05/16 00:53:11;;;;;;;;;;;17.90;99.90;;;;;;5091638;28;19919;-69
2023/05/16 00:55:38;;;;;;;;;;;18.00;99.90;;;;;;5092846;28;19969;-67
2023/05/16 00:58:05;;;;;;;;;;;18.00;99.90;;;;;;5092950;28;19912;-69
2023/05/16 01:00:32;;;;;;;;;;;18.20;99.90;;;;;;5092269;28;19999;-69
2023/05/16 01:02:59;;;;;;;;;;;18.20;99.90;;;;;;5091028;28;19912;-71
2023/05/16 01:05:26;;;;;;;;;;;18.40;99.90;;;;;;5092181;28;19909;-69
2023/05/16 01:07:53;;;;;;;;;;;18.40;99.90;;;;;;5092471;28;19908;-70
2023/05/16 01:10:20;;;;;;;;;;;18.50;99.90;;;;;;5092151;28;19912;-72
2023/05/16 01:13:05;;;;;;;;;;;18.70;99.90;;;;;;5091192;28;20344;-68
2023/05/16 01:15:36;;;;;;;;;;;18.80;99.90;;;;;;5091595;28;19951;-69
2023/05/16 01:18:03;;;;;;;;;;;18.80;99.90;;;;;;5092140;28;19916;-70
2023/05/16 01:20:48;;;;;;;;;;;18.90;99.90;;;;;;5091390;28;20002;-69
2023/05/16 01:23:18;;;;;;;;;;;19.10;99.90;;;;;;5091261;28;19969;-69
2023/05/16 01:25:45;;;;;;;;;;;19.10;99.90;;;;;;5092080;28;20003;-69
2023/05/16 01:28:16;;;;;;;;;;;19.20;99.90;;;;;;5092412;28;20372;-68
2023/05/16 01:30:43;;;;;;;;;;;19.30;99.90;;;;;;5090909;28;20285;-70
2023/05/16 01:33:10;;;;;;;;;;;19.30;99.90;;;;;;5091147;28;19912;-69
2023/05/16 01:35:43;;;;;;;;;;;19.40;99.90;;;;;;5091290;28;19908;-69
2023/05/16 01:38:12;;;;;;;;;;;19.40;99.90;;;;;;5092489;28;20369;-70
2023/05/16 01:40:45;;;;;;;;;;;19.60;99.90;;;;;;5091519;28;19908;-69
2023/05/16 01:43:13;;;;;;;;;;;19.60;99.90;;;;;;5089874;28;19920;-69
2023/05/16 01:45:43;;;;;;;;;;;19.70;99.50;;;;;;5091741;28;19916;-69
2023/05/16 01:48:23;;;;;;;;;;;19.80;99.10;;;;;;5092028;28;19952;-71
2023/05/16 01:50:53;;;;;;;;;;;20.00;98.90;;;;;;5095269;28;20439;-70
2023/05/16 01:53:22;;;;;;;;;;;20.10;99.10;;;;;;5087179;28;19912;-69
2023/05/16 01:55:50;;;;;;;;;;;20.20;98.30;;;;;;5095689;28;19905;-70
2023/05/16 01:58:19;;;;;;;;;;;20.40;98.10;;;;;;5096060;28;19961;-71
2023/05/16 02:00:46;;;;;;;;;;;20.50;97.50;;;;;;5095838;28;19919;-67
2023/05/16 02:03:13;;;;;;;;;;;20.50;97.10;;;;;;5095008;28;19920;-69
2023/05/16 02:05:39;;;;;;;;;;;20.50;97.00;;;;;;5095102;28;19918;-69
2023/05/16 02:08:07;;;;;;;;;;;20.60;97.10;;;;;;5095601;28;19908;-68
2023/05/16 02:10:33;;;;;;;;;;;20.70;96.80;;;;;;5095059;28;19987;-69
2023/05/16 02:13:00;;;;;;;;;;;20.80;96.80;;;;;;5093967;28;19947;-70
2023/05/16 02:15:27;;;;;;;;;;;20.80;96.30;;;;;;5094644;28;19908;-68
2023/05/16 02:17:54;;;;;;;;;;;20.70;96.40;;;;;;5095557;28;19934;-70
2023/05/16 02:20:21;;;;;;;;;;;20.80;96.30;;;;;;5095082;28;19968;-69
2023/05/16 02:22:48;;;;;;;;;;;20.80;96.10;;;;;;5094829;28;19955;-71
2023/05/16 02:25:15;;;;;;;;;;;20.80;96.30;;;;;;5094436;28;19923;-70
2023/05/16 02:27:42;;;;;;;;;;;20.80;96.40;;;;;;5095044;28;20281;-71
2023/05/16 02:30:10;;;;;;;;;;;20.80;96.10;;;;;;5095006;28;19915;-69
2023/05/16 02:32:43;;;;;;;;;;;20.80;95.90;;;;;;5094348;28;19912;-70
2023/05/16 02:35:10;;;;;;;;;;;20.90;96.10;;;;;;5094535;28;19977;-68
2023/05/16 02:37:37;;;;;;;;;;;20.90;95.50;;;;;;5094827;28;19915;-69
2023/05/16 02:40:07;;;;;;;;;;;20.90;95.70;;;;;;5094810;28;19908;-70
2023/05/16 02:42:34;;;;;;;;;;;21.00;95.30;;;;;;5093296;28;19927;-68
2023/05/16 02:45:01;;;;;;;;;;;21.10;95.10;;;;;;5094200;28;19920;-70
2023/05/16 02:47:28;;;;;;;;;;;21.30;95.00;;;;;;5094753;28;20269;-69
2023/05/16 02:49:55;;;;;;;;;;;21.40;94.80;;;;;;5094361;28;20369;-71
2023/05/16 02:52:21;;;;;;;;;;;21.70;95.50;;;;;;5094284;28;19912;-70
2023/05/16 02:54:48;;;;;;;;;;;21.90;95.50;;;;;;5094406;28;19909;-68
2023/05/16 02:57:15;;;;;;;;;;;22.10;96.40;;;;;;5094177;28;19923;-67
2023/05/16 02:59:41;;;;;;;;;;;22.60;96.10;;;;;;5094216;28;19908;-70
2023/05/16 03:02:08;;;;;;;;;;;23.00;95.90;;;;;;5093101;28;19916;-68
2023/05/16 03:04:34;;;;;;;;;;;24.10;94.60;;;;;;5093983;28;20029;-69
2023/05/16 03:07:01;;;;;;;;;;;24.80;93.40;;;;;;5094140;28;19908;-68
2023/05/16 03:09:28;;;;;;;;;;;25.00;91.80;;;;;;5075827;28;19912;-69
2023/05/16 03:11:54;;;;;;;;;;;24.90;91.80;;;;;;5093356;28;20448;-68
2023/05/16 03:14:21;;;;;;;;;;;24.50;92.00;;;;;;5093838;28;19912;-69
2023/05/16 03:16:48;;;;;;;;;;;24.30;91.30;;;;;;5094678;28;19911;-70
2023/05/16 03:19:14;;;;;;;;;;;24.40;90.60;;;;;;5094232;28;20281;-71
2023/05/16 03:21:41;;;;;;;;;;;25.50;88.20;;;;;;5094035;28;19912;-69
2023/05/16 03:24:08;;;;;;;;;;;26.40;83.70;;;;;;5094111;28;19916;-71
2023/05/16 03:26:34;;;;;;;;;;;26.50;82.40;;;;;;5094151;28;19951;-70
2023/05/16 03:29:01;;;;;;;;;;;26.50;81.90;;;;;;5093731;28;19912;-70
2023/05/16 03:31:27;;;;;;;;;;;26.60;82.30;;;;;;5083467;28;19912;-70
2023/05/16 03:33:54;;;;;;;;;;;26.80;82.30;;;;;;5093767;28;19908;-71
2023/05/16 03:36:23;;;;;;;;;;;27.20;81.80;;;;;;5093390;28;20274;-72
2023/05/16 03:38:49;;;;;;;;;;;28.40;79.60;;;;;;5093785;28;19915;-70
2023/05/16 03:41:16;;;;;;;;;;;30.00;75.80;;;;;;5093293;28;20376;-71
2023/05/16 03:43:43;;;;;;;;;;;31.50;71.10;;;;;;5093426;28;19920;-71
2023/05/16 03:46:09;;;;;;;;;;;32.20;67.70;;;;;;5093669;28;19931;-70
2023/05/16 03:48:36;;;;;;;;;;;32.80;67.10;;;;;;5093842;28;19912;-70
2023/05/16 03:51:03;;;;;;;;;;;33.70;64.50;;;;;;5092544;28;19919;-71
2023/05/16 03:53:29;;;;;;;;;;;34.10;62.50;;;;;;5093741;28;20041;-70
2023/05/16 03:55:56;;;;;;;;;;;34.50;60.80;;;;;;5093638;28;20261;-70
2023/05/16 03:58:23;;;;;;;;;;;34.10;60.00;;;;;;5093029;28;19916;-69
2023/05/16 04:00:49;;;;;;;;;;;33.70;59.80;;;;;;5091897;28;19923;-69
2023/05/16 04:03:16;;;;;;;;;;;33.80;58.70;;;;;;5092913;28;19927;-70
2023/05/16 04:05:43;;;;;;;;;;;33.40;58.00;;;;;;5093485;28;20411;-68
2023/05/16 04:08:10;;;;;;;;;;;33.40;57.70;;;;;;5093106;28;19919;-71
2023/05/16 04:10:36;;;;;;;;;;;33.50;57.50;;;;;;5092166;28;19908;-71
2023/05/16 04:13:03;;;;;;;;;;;33.90;56.40;;;;;;5088641;28;19919;-70
2023/05/16 04:15:30;;;;;;;;;;;33.80;55.70;;;;;;5092857;28;19950;-69
2023/05/16 04:17:56;;;;;;;;;;;33.20;56.50;;;;;;5092954;28;20343;-71
2023/05/16 04:20:23;;;;;;;;;;;31.90;57.30;;;;;;5088366;28;20360;-70
2023/05/16 04:22:50;;;;;;;;;;;30.70;59.20;;;;;;5091727;28;19912;-69
2023/05/16 04:25:17;;;;;;;;;;;29.70;60.00;;;;;;5092464;28;20014;-71
2023/05/16 04:27:44;;;;;;;;;;;28.30;62.50;;;;;;5074811;28;20338;-69
2023/05/16 04:30:11;;;;;;;;;;;27.00;64.20;;;;;;5092692;28;19953;-70
2023/05/16 04:32:37;;;;;;;;;;;26.20;66.20;;;;;;5092473;28;20006;-69
2023/05/16 04:35:04;;;;;;;;;;;25.50;67.10;;;;;;5092557;28;20533;-70
2023/05/16 04:37:31;;;;;;;;;;;24.80;68.30;;;;;;5092793;28;20273;-70
2023/05/16 04:39:58;;;;;;;;;;;24.30;68.60;;;;;;5092500;28;19908;-68
2023/05/16 04:42:25;;;;;;;;;;;23.90;69.60;;;;;;5091688;28;19916;-70
2023/05/16 04:44:52;;;;;;;;;;;23.60;71.20;;;;;;5092595;28;20390;-69
2023/05/16 04:47:18;;;;;;;;;;;23.40;71.60;;;;;;5092252;28;19983;-68
2023/05/16 04:49:45;;;;;;;;;;;23.10;72.30;;;;;;5091902;28;20012;-69
2023/05/16 04:52:12;;;;;;;;;;;23.00;73.80;;;;;;5091033;28;20114;-70
2023/05/16 04:54:38;;;;;;;;;;;22.90;73.80;;;;;;5092105;28;19916;-68
2023/05/16 04:57:05;;;;;;;;;;;22.70;73.60;;;;;;5088464;28;19908;-70
2023/05/16 04:59:32;;;;;;;;;;;22.60;73.70;;;;;;5090713;28;19912;-70
2023/05/16 05:01:58;;;;;;;;;;;22.50;72.50;;;;;;5087521;28;19912;-69
2023/05/16 05:04:25;;;;;;;;;;;22.40;73.20;;;;;;5089003;28;19943;-69
2023/05/16 05:06:52;;;;;;;;;;;22.50;71.50;;;;;;5088606;28;20309;-69
2023/05/16 05:09:18;;;;;;;;;;;22.40;71.20;;;;;;5090433;28;19912;-70
2023/05/16 05:11:45;;;;;;;;;;;22.60;71.20;;;;;;5091056;28;19912;-69
2023/05/16 05:14:12;;;;;;;;;;;22.60;72.10;;;;;;5091482;28;19908;-69
2023/05/16 05:16:38;;;;;;;;;;;22.60;72.90;;;;;;5091312;28;19908;-68
2023/05/16 05:19:05;;;;;;;;;;;22.70;71.90;;;;;;5091235;28;20392;-69
2023/05/16 05:21:32;;;;;;;;;;;22.70;72.00;;;;;;5091318;28;20027;-67
2023/05/16 05:23:58;;;;;;;;;;;22.70;72.70;;;;;;5090214;28;19966;-71
2023/05/16 05:26:25;;;;;;;;;;;22.50;73.60;;;;;;5090756;28;20425;-68
2023/05/16 05:28:52;;;;;;;;;;;22.50;72.10;;;;;;5089899;28;19909;-67
2023/05/16 05:31:18;;;;;;;;;;;22.50;72.10;;;;;;5088531;28;19919;-70
2023/05/16 05:33:45;;;;;;;;;;;22.70;72.10;;;;;;5090419;28;19916;-69
2023/05/16 05:36:11;;;;;;;;;;;22.90;72.70;;;;;;5090843;28;20361;-68
2023/05/16 05:38:38;;;;;;;;;;;23.20;73.20;;;;;;5091610;28;19949;-69
2023/05/16 05:41:05;;;;;;;;;;;23.30;74.40;;;;;;5090250;28;19916;-68
2023/05/16 05:43:33;;;;;;;;;;;23.40;74.50;;;;;;5091120;28;20373;-69
2023/05/16 05:45:59;;;;;;;;;;;23.60;74.20;;;;;;5091496;28;19953;-69
2023/05/16 05:48:28;;;;;;;;;;;23.60;74.90;;;;;;5091566;28;19959;-69
2023/05/16 05:50:55;;;;;;;;;;;23.50;74.90;;;;;;5091535;28;19908;-68
2023/05/16 05:53:22;;;;;;;;;;;23.40;75.20;;;;;;5090968;28;19934;-68
2023/05/16 05:55:49;;;;;;;;;;;23.10;75.80;;;;;;5090680;28;20518;-67
2023/05/16 05:58:17;;;;;;;;;;;23.10;76.50;;;;;;5090448;28;20407;-67
2023/05/16 06:00:43;;;;;;;;;;;23.30;76.00;;;;;;5091199;28;19908;-67
2023/05/16 06:03:10;;;;;;;;;;;23.60;75.80;;;;;;5090504;28;19956;-68
2023/05/16 06:05:37;;;;;;;;;;;24.00;75.90;;;;;;5090219;28;19916;-68
2023/05/16 06:08:03;;;;;;;;;;;24.00;75.60;;;;;;5090432;28;19912;-69
2023/05/16 06:10:30;;;;;;;;;;;23.90;76.20;;;;;;5090534;28;20007;-69
2023/05/16 06:12:57;;;;;;;;;;;24.30;76.00;;;;;;5090197;28;19912;-68
2023/05/16 06:15:25;;;;;;;;;;;24.80;75.30;;;;;;5085686;28;19923;-68
2023/05/16 06:17:51;;;;;;;;;;;25.20;74.70;;;;;;5089847;28;19951;-68
2023/05/16 06:20:18;;;;;;;;;;;25.50;73.20;;;;;;5090110;28;20274;-69
2023/05/16 06:22:45;;;;;;;;;;;25.50;72.70;;;;;;5088375;28;20341;-69
2023/05/16 06:25:11;;;;;;;;;;;24.60;74.70;;;;;;5086900;28;19920;-68
2023/05/16 06:27:38;;;;;;;;;;;23.90;75.90;;;;;;5089191;28;20399;-69
2023/05/16 06:30:05;;;;;;;;;;;23.30;78.10;;;;;;5088728;28;19915;-69
2023/05/16 06:32:31;;;;;;;;;;;22.60;79.60;;;;;;5086285;28;19920;-68
2023/05/16 06:34:58;;;;;;;;;;;21.90;81.00;;;;;;5090352;28;19965;-69
2023/05/16 06:37:25;;;;;;;;;;;21.50;82.50;;;;;;5092683;28;20575;-69
2023/05/16 06:39:51;;;;;;;;;;;21.10;82.80;;;;;;5090030;28;19915;-67
2023/05/16 06:42:19;;;;;;;;;;;20.80;84.00;;;;;;5091944;28;19920;-70
2023/05/16 06:44:46;;;;;;;;;;;20.60;85.00;;;;;;5092157;28;19963;-69
2023/05/16 06:47:12;;;;;;;;;;;20.30;87.20;;;;;;5092687;28;19918;-69
2023/05/16 06:49:39;;;;;;;;;;;20.10;87.00;;;;;;5092456;28;19919;-69
2023/05/16 06:52:06;;;;;;;;;;;19.80;87.50;;;;;;5092120;28;19966;-69
2023/05/16 06:54:32;;;;;;;;;;;19.60;88.90;;;;;;5092792;28;20280;-69
2023/05/16 06:56:59;;;;;;;;;;;19.50;89.10;;;;;;5092020;28;19970;-67
2023/05/16 06:59:26;;;;;;;;;;;19.30;89.80;;;;;;5090542;28;19916;-69
2023/05/16 07:01:52;;;;;;;;;;;19.20;90.20;;;;;;5090833;28;19916;-69
2023/05/16 07:04:19;;;;;;;;;;;19.10;90.50;;;;;;5091172;28;19916;-68
2023/05/16 07:06:46;;;;;;;;;;;18.90;90.90;;;;;;5090846;28;19923;-69
2023/05/16 07:09:12;;;;;;;;;;;18.80;91.40;;;;;;5090675;28;20291;-68
2023/05/16 07:11:39;;;;;;;;;;;18.70;91.40;;;;;;5091086;28;19965;-68
2023/05/16 07:14:05;;;;;;;;;;;18.70;91.80;;;;;;5091659;28;19923;-69
2023/05/16 07:16:32;;;;;;;;;;;18.60;92.10;;;;;;5092016;28;19958;-69
2023/05/16 07:18:59;;;;;;;;;;;18.50;92.00;;;;;;5092392;28;19908;-68
2023/05/16 07:21:26;;;;;;;;;;;18.40;92.40;;;;;;5091349;28;19967;-69
2023/05/16 07:23:52;;;;;;;;;;;18.40;92.60;;;;;;5074007;28;19920;-69
2023/05/16 07:26:21;;;;;;;;;;;18.30;92.90;;;;;;5091560;28;19962;-69
2023/05/16 07:28:51;;;;;;;;;;;18.20;92.90;;;;;;5091320;28;19924;-69
2023/05/16 07:31:18;;;;;;;;;;;18.20;93.20;;;;;;5090976;28;19912;-68
2023/05/16 07:33:45;;;;;;;;;;;18.10;93.30;;;;;;5091505;28;19991;-70
2023/05/16 07:36:12;;;;;;;;;;;18.00;93.70;;;;;;5091978;28;19914;-70
2023/05/16 07:38:39;;;;;;;;;;;18.00;94.00;;;;;;5093281;28;19916;-69
2023/05/16 07:41:06;;;;;;;;;;;18.00;94.30;;;;;;5092074;28;19916;-70
2023/05/16 07:43:35;;;;;;;;;;;17.90;94.50;;;;;;5092084;28;19924;-70
2023/05/16 07:46:02;;;;;;;;;;;17.90;94.40;;;;;;5091303;28;20329;-68
2023/05/16 07:48:29;;;;;;;;;;;17.90;94.80;;;;;;5092539;28;19938;-69
2023/05/16 07:50:56;;;;;;;;;;;17.80;94.60;;;;;;5092540;28;19995;-71
2023/05/16 07:53:23;;;;;;;;;;;17.80;95.10;;;;;;5092924;28;19953;-69
2023/05/16 07:55:50;;;;;;;;;;;17.70;95.30;;;;;;5092795;28;20061;-69
2023/05/16 07:58:16;;;;;;;;;;;17.70;95.30;;;;;;5092733;28;20280;-68
2023/05/16 08:00:43;;;;;;;;;;;17.60;95.50;;;;;;5092726;28;19962;-67
2023/05/16 08:03:10;;;;;;;;;;;17.50;95.40;;;;;;5092609;28;19915;-69
2023/05/16 08:05:36;;;;;;;;;;;17.50;95.80;;;;;;5093132;28;19908;-70
2023/05/16 08:08:03;;;;;;;;;;;17.40;96.30;;;;;;5092834;28;20406;-69
2023/05/16 08:10:30;;;;;;;;;;;17.40;96.40;;;;;;5091724;28;19918;-68
2023/05/16 08:12:56;;;;;;;;;;;17.30;96.40;;;;;;5092761;28;19908;-68
2023/05/16 08:15:23;;;;;;;;;;;17.30;96.80;;;;;;5092967;28;19908;-67
2023/05/16 08:17:49;;;;;;;;;;;17.20;97.10;;;;;;5092739;28;19952;-66
2023/05/16 08:20:16;;;;;;;;;;;17.20;97.60;;;;;;5092277;28;19957;-67
2023/05/16 08:22:43;;;;;;;;;;;17.10;98.10;;;;;;5092375;28;19908;-68
2023/05/16 08:25:10;;;;;;;;;;;17.10;98.50;;;;;;5092109;28;19959;-66
2023/05/16 08:27:36;;;;;;;;;;;17.00;98.70;;;;;;5091867;28;19955;-68
2023/05/16 08:30:03;;;;;;;;;;;17.00;98.90;;;;;;5092042;28;20035;-67
2023/05/16 08:32:30;;;;;;;;;;;16.90;99.00;;;;;;5091096;28;19908;-69
2023/05/16 08:34:57;;;;;;;;;;;16.90;99.60;;;;;;5091771;28;19920;-68
2023/05/16 08:37:23;;;;;;;;;;;16.80;99.90;;;;;;5092270;28;19931;-68
2023/05/16 08:39:50;;;;;;;;;;;16.70;99.90;;;;;;5102851;28;19912;-66
2023/05/16 08:42:17;;;;;;;;;;;16.60;99.90;;;;;;5090391;28;19920;-67
2023/05/16 08:44:44;;;;;;;;;;;16.60;99.90;;;;;;5090795;28;20270;-67
2023/05/16 08:47:21;;;;;;;;;;;16.60;99.90;;;;;;5090772;28;20213;-67
2023/05/16 08:49:49;;;;;;;;;;;16.50;99.90;;;;;;5091594;28;19931;-69
2023/05/16 08:52:18;;;;;;;;;;;16.50;99.90;;;;;;5092088;28;19912;-69
2023/05/16 08:54:45;;;;;;;;;;;16.40;99.90;;;;;;5088919;28;19916;-68
2023/05/16 08:57:13;;;;;;;;;;;16.30;99.90;;;;;;5091582;28;19909;-67
2023/05/16 08:59:40;;;;;;;;;;;16.40;99.90;;;;;;5091694;28;19915;-67
2023/05/16 09:02:08;;;;;;;;;;;16.30;99.90;;;;;;5092135;28;19916;-66
2023/05/16 09:04:35;;;;;;;;;;;16.30;99.90;;;;;;5091311;28;19927;-68
2023/05/16 09:07:02;;;;;;;;;;;16.20;99.90;;;;;;5091496;28;19919;-67
2023/05/16 09:09:29;;;;;;;;;;;16.20;99.90;;;;;;5091324;28;20330;-66
2023/05/16 09:11:56;;;;;;;;;;;16.20;99.90;;;;;;5091596;28;20396;-68
2023/05/16 09:14:22;;;;;;;;;;;16.20;99.90;;;;;;5091808;28;19908;-67
2023/05/16 09:17:05;;;;;;;;;;;16.10;99.90;;;;;;5091481;28;20366;-67
2023/05/16 09:19:41;;;;;;;;;;;16.10;99.90;;;;;;5091729;28;20381;-68
2023/05/16 09:22:12;;;;;;;;;;;16.10;99.90;;;;;;5091774;28;20411;-67
2023/05/16 09:24:39;;;;;;;;;;;16.10;99.90;;;;;;5091080;28;19927;-70
2023/05/16 09:27:10;;;;;;;;;;;16.10;99.90;;;;;;5091401;28;19919;-67
2023/05/16 09:29:39;;;;;;;;;;;16.20;99.90;;;;;;5090883;28;19916;-69
2023/05/16 09:32:24;;;;;;;;;;;16.20;99.90;;;;;;5090590;28;19956;-68
2023/05/16 09:34:52;;;;;;;;;;;16.10;99.90;;;;;;5089934;28;19908;-71
2023/05/16 09:37:19;;;;;;;;;;;16.10;99.90;;;;;;5090723;28;20002;-70
2023/05/16 09:39:47;;;;;;;;;;;16.10;99.90;;;;;;5088709;28;19944;-69
2023/05/16 09:42:14;;;;;;;;;;;16.10;99.90;;;;;;5090952;28;19951;-68
2023/05/16 09:44:41;;;;;;;;;;;16.10;99.90;;;;;;5091638;28;19921;-68
2023/05/16 09:47:08;;;;;;;;;;;16.10;99.90;;;;;;5092161;28;19947;-70
2023/05/16 09:49:36;;;;;;;;;;;16.00;99.90;;;;;;5093466;28;19916;-67
2023/05/16 09:52:03;;;;;;;;;;;16.00;99.90;;;;;;5094639;28;19923;-69
2023/05/16 09:54:31;;;;;;;;;;;16.00;99.90;;;;;;5092044;28;19911;-68
2023/05/16 09:56:59;;;;;;;;;;;16.10;99.90;;;;;;5091485;28;19908;-68
2023/05/16 09:59:28;;;;;;;;;;;16.10;99.90;;;;;;5091770;28;20353;-68
2023/05/16 10:01:56;;;;;;;;;;;16.10;99.90;;;;;;5091875;28;20349;-68
2023/05/16 10:04:23;;;;;;;;;;;16.10;99.90;;;;;;5088844;28;19931;-70
2023/05/16 10:06:51;;;;;;;;;;;16.10;99.90;;;;;;5079596;28;20433;-71
2023/05/16 10:09:18;;;;;;;;;;;16.00;99.90;;;;;;5091672;28;19912;-69
2023/05/16 10:11:45;;;;;;;;;;;16.00;99.90;;;;;;5094689;28;19908;-70
2023/05/16 10:14:13;;;;;;;;;;;15.90;99.90;;;;;;5094278;28;20466;-69
2023/05/16 10:16:42;;;;;;;;;;;15.90;99.90;;;;;;5094306;28;19920;-68
2023/05/16 10:19:09;;;;;;;;;;;15.90;99.90;;;;;;5095517;28;19916;-69
2023/05/16 10:21:37;;;;;;;;;;;15.90;99.90;;;;;;5094961;28;19908;-67
2023/05/16 10:24:06;;;;;;;;;;;15.80;99.90;;;;;;5094162;28;20250;-68
2023/05/16 10:26:33;;;;;;;;;;;15.70;99.90;;;;;;5094398;28;19912;-67
2023/05/16 10:29:01;;;;;;;;;;;15.70;99.90;;;;;;5093678;28;19965;-68
2023/05/16 10:31:28;;;;;;;;;;;15.70;99.90;;;;;;5093022;28;19916;-70
2023/05/16 10:33:56;;;;;;;;;;;15.60;99.90;;;;;;5092742;28;20388;-70
2023/05/16 10:36:24;;;;;;;;;;;15.60;99.90;;;;;;5093152;28;19962;-71
2023/05/16 10:38:50;;;;;;;;;;;15.60;99.90;;;;;;5094505;28;19908;-69
2023/05/16 10:41:18;;;;;;;;;;;15.60;99.90;;;;;;5094922;28;19908;-70
2023/05/16 10:43:55;;;;;;;;;;;15.70;99.90;;;;;;5092606;28;19920;-68
2023/05/16 10:46:22;;;;;;;;;;;15.60;99.90;;;;;;5091112;28;19912;-68
2023/05/16 10:48:48;;;;;;;;;;;15.60;99.90;;;;;;5091588;28;19923;-68
2023/05/16 10:51:33;;;;;;;;;;;15.60;99.90;;;;;;5093001;28;19907;-68
2023/05/16 10:54:11;;;;;;;;;;;15.60;99.90;;;;;;5093694;28;19935;-68
2023/05/16 10:56:38;;;;;;;;;;;15.60;99.90;;;;;;5073312;28;19917;-69
2023/05/16 10:59:21;;;;;;;;;;;15.60;99.90;;;;;;5075147;28;19993;-68
2023/05/16 11:01:51;;;;;;;;;;;15.60;99.90;;;;;;5094734;28;20400;-68
2023/05/16 11:04:18;;;;;;;;;;;15.60;99.90;;;;;;5093866;28;19920;-67
2023/05/16 11:06:46;;;;;;;;;;;15.60;99.90;;;;;;5095030;28;19995;-68
2023/05/16 11:09:15;;;;;;;;;;;15.60;99.90;;;;;;5094788;28;19915;-68
2023/05/16 11:11:46;;;;;;;;;;;15.60;99.90;;;;;;5093760;28;20017;-69
2023/05/16 11:14:36;;;;;;;;;;;15.60;99.90;;;;;;5075439;28;20238;-68
2023/05/16 11:17:02;;;;;;;;;;;15.70;99.90;;;;;;5094125;28;20368;-67
2023/05/16 11:19:30;;;;;;;;;;;15.70;99.90;;;;;;5094850;28;20268;-68
2023/05/16 11:22:06;;;;;;;;;;;15.60;99.90;;;;;;5092746;28;20264;-70
2023/05/16 11:24:34;;;;;;;;;;;15.50;99.90;;;;;;5080729;28;19920;-68
2023/05/16 11:27:01;;;;;;;;;;;15.50;99.90;;;;;;5097413;28;19973;-67
2023/05/16 11:29:34;;;;;;;;;;;15.50;99.90;;;;;;5093022;28;19915;-68
2023/05/16 11:32:02;;;;;;;;;;;15.40;99.90;;;;;;5093182;28;19908;-71
2023/05/16 11:34:30;;;;;;;;;;;15.40;99.90;;;;;;5094577;28;19934;-71
2023/05/16 11:36:59;;;;;;;;;;;15.30;99.90;;;;;;5093842;28;20253;-70
2023/05/16 11:39:25;;;;;;;;;;;15.20;99.90;;;;;;5093839;28;19915;-69
2023/05/16 11:41:55;;;;;;;;;;;15.20;99.90;;;;;;5093291;28;19920;-69
2023/05/16 11:44:21;;;;;;;;;;;15.00;99.90;;;;;;5094196;28;19965;-70
2023/05/16 11:46:48;;;;;;;;;;;15.00;99.90;;;;;;5094578;28;20344;-67
2023/05/16 11:49:15;;;;;;;;;;;14.90;99.90;;;;;;5093703;28;19912;-67
2023/05/16 11:51:42;;;;;;;;;;;14.90;99.90;;;;;;5094558;28;19909;-68
2023/05/16 11:54:09;;;;;;;;;;;14.80;99.90;;;;;;5093556;28;19919;-68
2023/05/16 11:56:36;;;;;;;;;;;14.80;99.90;;;;;;5094126;28;19913;-68
2023/05/16 11:59:03;;;;;;;;;;;14.70;99.90;;;;;;5094277;28;19908;-67
2023/05/16 12:01:36;;;;;;;;;;;14.60;99.90;;;;;;5093816;28;19915;-68
2023/05/16 12:04:10;;;;;;;;;;;14.60;99.90;;;;;;5093668;28;20344;-68
2023/05/16 12:06:37;;;;;;;;;;;14.60;99.90;;;;;;5094645;28;20253;-68
2023/05/16 12:09:13;;;;;;;;;;;14.60;99.90;;;;;;5094006;28;19962;-68
2023/05/16 12:11:42;;;;;;;;;;;14.50;99.90;;;;;;5094143;28;19944;-68
2023/05/16 12:14:11;;;;;;;;;;;14.50;99.90;;;;;;5093832;28;19912;-68
2023/05/16 12:16:40;;;;;;;;;;;14.50;99.90;;;;;;5093964;28;19918;-70
2023/05/16 12:19:08;;;;;;;;;;;14.60;99.90;;;;;;5093724;28;19908;-68
2023/05/16 12:21:35;;;;;;;;;;;14.50;99.90;;;;;;5093869;28;20410;-70
2023/05/16 12:24:01;;;;;;;;;;;14.50;99.90;;;;;;5093132;28;19920;-69
2023/05/16 12:26:32;;;;;;;;;;;14.60;99.90;;;;;;5093447;28;19919;-68
2023/05/16 12:29:02;;;;;;;;;;;14.70;99.90;;;;;;5093656;28;19908;-70
2023/05/16 12:31:35;;;;;;;;;;;14.70;99.90;;;;;;5093530;28;19912;-66
2023/05/16 12:34:02;;;;;;;;;;;14.80;99.90;;;;;;5092478;28;19912;-67
2023/05/16 12:36:33;;;;;;;;;;;14.80;99.90;;;;;;5093245;28;19935;-66
2023/05/16 12:39:02;;;;;;;;;;;14.90;99.90;;;;;;5092794;28;19995;-68
2023/05/16 12:41:30;;;;;;;;;;;14.90;99.90;;;;;;5093340;28;20497;-68
2023/05/16 12:44:06;;;;;;;;;;;14.90;99.90;;;;;;5092627;28;19962;-67
2023/05/16 12:46:33;;;;;;;;;;;15.00;99.90;;;;;;5092720;28;20257;-70
2023/05/16 12:49:06;;;;;;;;;;;15.00;99.90;;;;;;5092990;28;20281;-70
2023/05/16 12:51:32;;;;;;;;;;;15.20;99.90;;;;;;5093135;28;19953;-69
2023/05/16 12:54:06;;;;;;;;;;;15.40;99.90;;;;;;5092607;28;20041;-69
2023/05/16 12:56:33;;;;;;;;;;;15.50;99.90;;;;;;5093198;28;19912;-69
2023/05/16 12:59:00;;;;;;;;;;;15.60;99.90;;;;;;5092824;28;19962;-69
2023/05/16 13:01:27;;;;;;;;;;;15.60;99.90;;;;;;5092384;28;20319;-68
2023/05/16 13:03:53;;;;;;;;;;;15.60;99.90;;;;;;5093196;28;19916;-68
2023/05/16 13:06:20;;;;;;;;;;;15.60;99.90;;;;;;5092836;28;19908;-68
2023/05/16 13:08:47;;;;;;;;;;;15.50;99.90;;;;;;5093003;28;20411;-67
2023/05/16 13:11:13;;;;;;;;;;;15.60;99.90;;;;;;5092959;28;19916;-68
2023/05/16 13:13:40;;;;;;;;;;;15.60;99.90;;;;;;5092773;28;19908;-69
2023/05/16 13:16:06;;;;;;;;;;;15.50;99.90;;;;;;5090001;28;19938;-70
2023/05/16 13:18:35;;;;;;;;;;;15.50;99.90;;;;;;5092153;28;19912;-69
2023/05/16 13:21:03;;;;;;;;;;;15.40;99.90;;;;;;5074811;28;19912;-69
2023/05/16 13:23:30;;;;;;;;;;;15.40;99.90;;;;;;5092514;28;19908;-68
2023/05/16 13:25:57;;;;;;;;;;;15.30;99.90;;;;;;5092839;28;19920;-69
2023/05/16 13:28:23;;;;;;;;;;;15.20;99.90;;;;;;5092220;28;20007;-70
2023/05/16 13:30:50;;;;;;;;;;;15.20;99.90;;;;;;5092646;28;20311;-70
2023/05/16 13:33:17;;;;;;;;;;;15.20;99.90;;;;;;5092871;28;19954;-70
2023/05/16 13:35:43;;;;;;;;;;;15.20;99.90;;;;;;5092752;28;19915;-68
2023/05/16 13:38:10;;;;;;;;;;;15.20;99.90;;;;;;5092268;28;19916;-72
2023/05/16 13:40:37;;;;;;;;;;;15.20;99.90;;;;;;5092378;28;19912;-70
2023/05/16 13:43:04;;;;;;;;;;;15.20;99.90;;;;;;5074584;28;19926;-71
2023/05/16 13:45:31;;;;;;;;;;;15.20;99.90;;;;;;5094761;28;20381;-72
2023/05/16 13:47:57;;;;;;;;;;;15.10;99.90;;;;;;5096448;28;19973;-72
2023/05/16 13:50:24;;;;;;;;;;;15.00;99.90;;;;;;5096274;28;19933;-73
2023/05/16 13:52:51;;;;;;;;;;;15.00;99.90;;;;;;5096624;28;19908;-72
2023/05/16 13:55:17;;;;;;;;;;;14.90;99.90;;;;;;5099060;28;19912;-72
2023/05/16 13:57:44;;;;;;;;;;;14.90;99.90;;;;;;5100873;28;19908;-71
2023/05/16 14:00:14;;;;;;;;;;;14.90;99.90;;;;;;5097213;28;19912;-71
2023/05/16 14:02:43;;;;;;;;;;;14.90;99.90;;;;;;5096445;28;19943;-70
2023/05/16 14:05:10;;;;;;;;;;;14.80;99.90;;;;;;5096279;28;19920;-70
2023/05/16 14:07:36;;;;;;;;;;;14.80;99.90;;;;;;5096073;28;19957;-69
2023/05/16 14:10:05;;;;;;;;;;;14.70;99.90;;;;;;5096079;28;19916;-69
2023/05/16 14:12:32;;;;;;;;;;;14.70;99.90;;;;;;5096250;28;19912;-69
2023/05/16 14:14:58;;;;;;;;;;;14.70;99.90;;;;;;5096122;28;19908;-69
2023/05/16 14:17:25;;;;;;;;;;;14.60;99.90;;;;;;5077961;28;19908;-70
2023/05/16 14:19:52;;;;;;;;;;;14.60;99.90;;;;;;5095872;28;19912;-69